Time;durP1;ratioP1;P1;durP2;ratioP2;P2;SDS_P1;SDS_P2;PMS_P1;PMS_P2;Temp;Humidity;BMP_temperature;BMP_pressure;BME280_temperature;BME280_humidity;BME280_pressure;Samples;Min_cycle;Max_cycle;Signal;HPM_P1;HPM_P2
2022/08/22 00:00:12;;;;;;;17.45;10.98;;;;;;;23.34;85.20;99534.41;4930993;28;20085;-73
2022/08/22 00:02:56;;;;;;;15.63;12.05;;;;;;;23.09;85.89;99500.91;4910708;28;20071;-74
2022/08/22 00:05:25;;;;;;;17.10;12.38;;;;;;;23.33;85.60;99532.69;4910624;28;20075;-76
2022/08/22 00:08:13;;;;;;;13.35;11.50;;;;;;;23.23;84.54;99497.03;4910493;28;20036;-74
2022/08/22 00:10:47;;;;;;;13.80;11.60;;;;;;;23.31;84.81;99523.09;4910394;28;20047;-72
2022/08/22 00:13:30;;;;;;;15.77;11.68;;;;;;;23.19;84.86;99511.16;4898792;28;20047;-70
2022/08/22 00:16:02;;;;;;;18.77;11.80;;;;;;;23.22;85.16;99518.97;4907960;29;20032;-72
2022/08/22 00:18:40;;;;;;;17.77;12.55;;;;;;;23.18;85.82;99514.69;4910259;28;20102;-71
2022/08/22 00:21:14;;;;;;;20.30;12.70;;;;;;;23.18;86.93;99520.84;4895378;28;20048;-71
2022/08/22 00:24:07;;;;;;;17.27;12.63;;;;;;;23.03;88.07;99526.53;4891305;29;20036;-73
2022/08/22 00:27:00;;;;;;;18.40;12.27;;;;;;;22.90;88.80;99526.91;4890707;28;20360;-71
2022/08/22 00:29:32;;;;;;;18.08;11.60;;;;;;;22.62;89.25;99504.00;4891594;29;20047;-71
2022/08/22 00:32:35;;;;;;;18.02;12.00;;;;;;;22.74;89.03;99522.97;4969007;28;20112;-70
2022/08/22 00:35:31;;;;;;;17.67;12.07;;;;;;;22.76;88.36;99508.00;5009410;28;20208;-74
2022/08/22 00:38:06;;;;;;;17.42;11.70;;;;;;;22.73;88.52;99519.50;5009475;28;20046;-70
2022/08/22 00:40:52;;;;;;;18.05;11.55;;;;;;;22.44;88.29;99486.97;5009304;28;20049;-74
2022/08/22 00:43:48;;;;;;;16.98;11.77;;;;;;;22.57;88.59;99532.22;5009365;28;20049;-70
2022/08/22 00:46:44;;;;;;;15.45;11.52;;;;;;;22.41;88.10;99526.50;5009015;28;20034;-70
2022/08/22 00:49:48;;;;;;;20.63;12.60;;;;;;;22.32;88.58;99537.25;5008775;28;20049;-72
2022/08/22 00:52:50;;;;;;;21.17;11.20;;;;;;;22.41;87.84;99537.00;5008748;28;20064;-73
2022/08/22 00:55:45;;;;;;;19.88;11.45;;;;;;;22.36;87.07;99514.38;5009065;28;20037;-74
2022/08/22 00:58:59;;;;;;;20.55;11.93;;;;;;;22.52;86.37;99522.69;5008526;28;20057;-73
2022/08/22 01:01:31;;;;;;;22.98;11.32;;;;;;;22.51;86.17;99516.59;4912655;29;20043;-74
2022/08/22 01:04:22;;;;;;;24.42;11.65;;;;;;;22.62;86.34;99525.03;4912561;29;20647;-73
2022/08/22 01:07:07;;;;;;;22.45;12.18;;;;;;;22.69;85.93;99528.38;4912488;29;20044;-73
2022/08/22 01:09:42;;;;;;;26.23;11.98;;;;;;;22.73;86.67;99529.13;4912232;29;20122;-74
2022/08/22 01:12:28;;;;;;;18.83;11.50;;;;;;;22.78;86.91;99536.00;4900723;29;20044;-74
2022/08/22 01:14:56;;;;;;;19.90;12.30;;;;;;;22.70;86.84;99519.56;4893215;29;20039;-70
2022/08/22 01:17:43;;;;;;;20.20;12.40;;;;;;;22.76;86.83;99532.53;4893056;29;20109;-72
2022/08/22 01:20:52;;;;;;;20.90;12.43;;;;;;;22.74;86.61;99531.75;4893343;29;20087;-70
2022/08/22 01:24:09;;;;;;;23.13;12.18;;;;;;;22.69;86.37;99546.81;4912034;29;20120;-69
2022/08/22 01:26:56;;;;;;;23.90;11.32;;;;;;;22.70;86.41;99531.88;4893048;29;20044;-74
2022/08/22 01:29:49;;;;;;;25.48;11.05;;;;;;;22.69;85.51;99527.50;4893003;29;20041;-73
2022/08/22 01:32:36;;;;;;;21.42;11.50;;;;;;;22.69;84.77;99528.38;4893156;29;20048;-73
2022/08/22 01:35:35;;;;;;;28.15;10.27;;;;;;;22.66;84.17;99523.19;4892966;29;20067;-73
2022/08/22 01:38:19;;;;;;;19.75;10.52;;;;;;;22.67;83.77;99524.94;4892841;29;20048;-73
2022/08/22 01:40:56;;;;;;;21.98;9.75;;;;;;;22.67;83.13;99521.41;4911905;29;20039;-73
2022/08/22 01:44:02;;;;;;;24.30;10.85;;;;;;;22.64;83.98;99519.72;4911683;29;20189;-71
2022/08/22 01:46:45;;;;;;;23.60;11.60;;;;;;;22.63;84.17;99520.66;4874254;29;20036;-70
2022/08/22 01:49:27;;;;;;;21.55;10.25;;;;;;;22.49;84.98;99522.81;4873855;29;20504;-73
2022/08/22 01:52:06;;;;;;;24.75;11.30;;;;;;;22.38;85.44;99505.56;4874136;29;20120;-72
2022/08/22 01:54:41;;;;;;;;;;;;;;;22.46;85.46;99518.50;4874400;29;20052;-73
2022/08/22 01:57:08;;;;;;;21.92;11.27;;;;;;;22.53;85.39;99527.06;4889344;29;19915;-74
2022/08/22 01:59:43;;;;;;;20.63;12.07;;;;;;;22.51;85.01;99524.47;4911600;29;20036;-73
2022/08/22 02:02:34;;;;;;;21.02;11.07;;;;;;;22.37;84.81;99497.66;4900253;29;20131;-70
2022/08/22 02:05:05;;;;;;;24.33;10.52;;;;;;;22.55;84.63;99517.38;4900421;29;20120;-69
2022/08/22 02:07:47;;;;;;;26.15;11.20;;;;;;;22.46;84.48;99503.56;4911524;29;20494;-74
2022/08/22 02:10:27;;;;;;;24.23;11.48;;;;;;;22.54;85.14;99519.16;4911546;29;20047;-72
2022/08/22 02:13:04;;;;;;;21.35;11.30;;;;;;;22.60;86.14;99526.88;4911437;29;20038;-72
2022/08/22 02:15:45;;;;;;;23.98;12.13;;;;;;;22.70;85.98;99522.19;4958225;28;20130;-72
2022/08/22 02:18:15;;;;;;;18.15;11.23;;;;;;;22.51;86.15;99507.84;4969019;28;20517;-70
2022/08/22 02:20:46;;;;;;;22.63;12.18;;;;;;;22.54;86.85;99528.78;4968420;28;20043;-72
2022/08/22 02:23:55;;;;;;;16.05;11.35;;;;;;;22.56;87.35;99524.38;4968273;28;20081;-72
2022/08/22 02:26:37;;;;;;;21.50;11.90;;;;;;;22.59;87.65;99524.25;5007738;28;20038;-71
2022/08/22 02:29:10;;;;;;;19.38;12.75;;;;;;;22.55;88.87;99522.63;5007874;28;20046;-73
2022/08/22 02:31:55;;;;;;;15.55;11.70;;;;;;;22.34;89.35;99493.34;5011676;28;20036;-74
2022/08/22 02:34:35;;;;;;;19.83;13.68;;;;;;;22.47;89.75;99501.81;4999748;28;20435;-69
2022/08/22 02:37:21;;;;;;;16.63;12.27;;;;;;;22.55;87.57;99522.63;5011430;28;20042;-73
2022/08/22 02:40:04;;;;;;;18.83;12.32;;;;;;;22.52;88.64;99509.56;5011345;28;20038;-74
2022/08/22 02:42:48;;;;;;;19.30;12.32;;;;;;;22.54;89.35;99515.66;5011364;28;20141;-73
2022/08/22 02:46:04;;;;;;;21.90;12.65;;;;;;;22.30;89.55;99492.56;5011758;28;20056;-77
2022/08/22 02:48:46;;;;;;;22.42;13.18;;;;;;;22.22;89.15;99525.22;4952650;28;20156;-72
2022/08/22 02:51:24;;;;;;;22.85;11.63;;;;;;;21.80;89.64;99503.50;4953125;29;20611;-77
2022/08/22 02:54:45;;;;;;;34.08;12.15;;;;;;;21.92;88.26;99535.63;4952993;29;20046;-71
2022/08/22 02:57:43;;;;;;;20.75;11.93;;;;;;;21.83;87.84;99528.81;4877130;29;20045;-74
2022/08/22 03:00:14;;;;;;;24.60;12.35;;;;;;;21.76;88.20;99535.16;4875938;29;20052;-69
2022/08/22 03:02:55;;;;;;;22.80;13.15;;;;;;;21.74;88.24;99535.16;4875571;29;20555;-72
2022/08/22 03:05:35;;;;;;;25.63;12.32;;;;;;;21.69;88.69;99541.44;4877430;29;20045;-71
2022/08/22 03:08:16;;;;;;;24.90;12.50;;;;;;;21.54;89.04;99527.72;4877469;29;20148;-73
2022/08/22 03:11:27;;;;;;;20.02;12.25;;;;;;;21.65;89.41;99544.13;4877385;29;20181;-70
2022/08/22 03:14:12;;;;;;;17.27;12.20;;;;;;;21.59;90.44;99551.31;4785728;29;20087;-72
2022/08/22 03:17:01;;;;;;;21.67;12.98;;;;;;;21.67;90.16;99559.00;4785987;29;20118;-72
2022/08/22 03:19:54;;;;;;;20.00;12.48;;;;;;;21.58;91.32;99554.81;4785888;29;20653;-73
2022/08/22 03:22:32;;;;;;;24.20;13.18;;;;;;;21.44;91.08;99532.31;4785717;29;20035;-70
2022/08/22 03:25:12;;;;;;;26.23;12.63;;;;;;;21.70;90.96;99567.66;4809635;29;20046;-73
2022/08/22 03:27:43;;;;;;;21.05;12.15;;;;;;;21.73;90.99;99574.63;4821756;29;20079;-72
2022/08/22 03:30:19;;;;;;;24.88;14.18;;;;;;;21.79;91.53;99566.59;4821581;29;20051;-70
2022/08/22 03:32:58;;;;;;;21.95;13.27;;;;;;;21.80;91.71;99582.31;4822943;29;20042;-75
2022/08/22 03:35:33;;;;;;;26.17;14.05;;;;;;;21.45;92.31;99570.81;4818796;29;20034;-74
2022/08/22 03:38:16;;;;;;;24.02;12.82;;;;;;;21.50;92.80;99576.84;4818790;29;20587;-69
2022/08/22 03:40:51;;;;;;;30.80;13.90;;;;;;;21.50;92.75;99576.84;4818273;29;20053;-73
2022/08/22 03:43:31;;;;;;;31.90;14.55;;;;;;;21.58;92.81;99570.59;4818933;29;20547;-71
2022/08/22 03:46:14;;;;;;;;;;;;;;;21.55;92.19;99573.25;4819220;29;20034;-73
2022/08/22 03:48:40;;;;;;;23.08;12.90;;;;;;;21.68;92.58;99576.50;4818621;29;19916;-71
2022/08/22 03:51:31;;;;;;;23.00;13.13;;;;;;;21.74;91.86;99582.44;4928299;29;20047;-71
2022/08/22 03:54:26;;;;;;;21.88;12.55;;;;;;;21.68;92.63;99572.09;4951697;29;20031;-71
2022/08/22 03:57:23;;;;;;;18.52;12.52;;;;;;;21.69;92.91;99579.06;4951672;29;20032;-69
2022/08/22 04:00:26;;;;;;;21.55;12.50;;;;;;;21.83;92.66;99584.00;5018177;28;20404;-76
2022/08/22 04:03:22;;;;;;;23.65;11.75;;;;;;;22.00;91.98;99582.75;4951589;29;20039;-69
2022/08/22 04:06:20;;;;;;;26.20;12.50;;;;;;;22.16;90.78;99586.72;4951722;29;20129;-70
2022/08/22 04:09:01;;;;;;;25.17;12.27;;;;;;;22.20;90.35;99587.50;4951251;29;20569;-77
2022/08/22 04:11:35;;;;;;;25.50;11.88;;;;;;;22.36;89.93;99590.63;4969786;28;20113;-70
2022/08/22 04:14:38;;;;;;;25.73;12.38;;;;;;;22.53;88.68;99596.34;4970443;28;20034;-70
2022/08/22 04:17:29;;;;;;;20.52;12.55;;;;;;;22.39;88.51;99570.41;5010073;28;20107;-78
2022/08/22 04:20:19;;;;;;;22.23;12.05;;;;;;;22.34;89.88;99598.53;5010154;28;20049;-74
2022/08/22 04:23:12;;;;;;;30.00;12.07;;;;;;;22.35;91.26;99612.56;5010403;28;20496;-77
2022/08/22 04:25:46;;;;;;;20.90;12.23;;;;;;;22.19;91.48;99599.78;5010215;28;20034;-76
2022/08/22 04:28:30;;;;;;;20.13;12.40;;;;;;;22.27;92.37;99613.59;5009976;28;20065;-73
2022/08/22 04:31:26;;;;;;;21.25;11.90;;;;;;;22.31;92.77;99617.03;5009929;28;20104;-74
2022/08/22 04:34:08;;;;;;;17.27;11.73;;;;;;;22.39;92.63;99614.22;4951339;29;20031;-69
2022/08/22 04:37:06;;;;;;;17.02;12.45;;;;;;;22.37;92.88;99616.91;4951620;29;20031;-72
2022/08/22 04:40:16;;;;;;;18.83;11.90;;;;;;;22.37;92.71;99614.28;4951016;29;20094;-70
2022/08/22 04:42:51;;;;;;;17.88;12.35;;;;;;;22.42;92.62;99609.75;4894332;29;20149;-71
2022/08/22 04:45:24;;;;;;;17.17;12.13;;;;;;;22.46;92.73;99614.03;4879334;29;20045;-72
2022/08/22 04:48:01;;;;;;;15.60;12.05;;;;;;;22.55;92.71;99612.91;4894312;29;20041;-70
2022/08/22 04:50:39;;;;;;;15.95;11.98;;;;;;;22.41;93.37;99600.13;4894199;29;20139;-74
2022/08/22 04:53:39;;;;;;;21.00;12.18;;;;;;;22.56;92.89;99619.91;4893422;29;20036;-73
2022/08/22 04:56:49;;;;;;;19.02;12.98;;;;;;;22.55;93.08;99622.59;4894342;29;20507;-69
2022/08/22 04:59:16;;;;;;;15.40;12.88;;;;;;;22.58;94.09;99619.88;4838352;29;20029;-70
2022/08/22 05:01:54;;;;;;;20.33;13.00;;;;;;;22.66;94.37;99614.44;4838197;29;20104;-72
2022/08/22 05:04:27;;;;;;;15.82;12.55;;;;;;;22.72;93.63;99619.53;4836885;29;20141;-73
2022/08/22 05:06:59;;;;;;;15.25;13.45;;;;;;;22.70;92.72;99601.13;4823425;29;20046;-69
2022/08/22 05:09:32;;;;;;;21.55;12.57;;;;;;;22.68;92.95;99586.28;4838341;29;20069;-69
2022/08/22 05:12:07;;;;;;;18.27;12.25;;;;;;;22.86;93.01;99613.88;4893246;29;20481;-73
2022/08/22 05:14:39;;;;;;;17.05;13.13;;;;;;;22.91;92.78;99620.72;4893801;29;20047;-69
2022/08/22 05:17:07;;;;;;;16.88;12.82;;;;;;;22.88;93.05;99615.56;4893586;29;20502;-73
2022/08/22 05:19:38;;;;;;;21.93;13.47;;;;;;;22.80;93.01;99596.47;4930213;29;20047;-71
2022/08/22 05:22:06;;;;;;;18.55;13.05;;;;;;;22.90;93.01;99607.63;4949133;29;20035;-71
2022/08/22 05:24:42;;;;;;;19.02;13.07;;;;;;;23.03;92.93;99618.66;4948550;29;20035;-74
2022/08/22 05:27:17;;;;;;;20.65;13.57;;;;;;;23.12;92.89;99623.69;4933537;29;20628;-71
2022/08/22 05:29:47;;;;;;;17.50;13.07;;;;;;;23.15;93.02;99623.56;4950043;29;20437;-73
2022/08/22 05:32:25;;;;;;;22.88;14.73;;;;;;;23.15;95.01;99613.03;4929929;29;20038;-71
2022/08/22 05:34:54;;;;;;;30.42;16.75;;;;;;;23.27;96.89;99623.25;5006074;28;20048;-74
2022/08/22 05:37:34;;;;;;;23.27;15.95;;;;;;;23.33;96.33;99616.97;5034485;28;20017;-71
2022/08/22 05:40:00;;;;;;;24.08;15.02;;;;;;;23.24;96.41;99617.22;5030596;28;20037;-73
2022/08/22 05:42:33;;;;;;;23.48;15.90;;;;;;;23.28;96.59;99626.78;5030826;28;20511;-74
2022/08/22 05:45:05;;;;;;;22.10;15.65;;;;;;;23.15;97.15;99628.00;5030665;28;20057;-69
2022/08/22 05:47:44;;;;;;;22.75;15.27;;;;;;;23.17;96.81;99620.97;5030450;28;20450;-72
2022/08/22 05:50:33;;;;;;;21.02;15.45;;;;;;;22.96;97.65;99593.44;5038286;28;20048;-73
2022/08/22 05:53:08;;;;;;;20.52;14.77;;;;;;;23.33;96.70;99616.06;5020118;28;20127;-71
2022/08/22 05:55:59;;;;;;;19.20;15.38;;;;;;;23.43;95.46;99628.94;4973287;28;20397;-72
2022/08/22 05:58:42;;;;;;;22.35;13.57;;;;;;;23.66;93.46;99639.69;4949661;28;20043;-72
2022/08/22 06:01:39;;;;;;;18.23;13.98;;;;;;;23.68;94.01;99636.09;4949930;28;20036;-72
2022/08/22 06:04:13;;;;;;;16.60;12.85;;;;;;;23.93;91.24;99647.72;5030099;28;20487;-73
2022/08/22 06:07:08;;;;;;;17.02;13.93;;;;;;;24.03;92.26;99643.88;5030136;28;20479;-71
2022/08/22 06:09:46;;;;;;;18.98;11.48;;;;;;;24.15;87.66;99640.84;4949817;29;20035;-74
2022/08/22 06:12:19;;;;;;;19.25;10.38;;;;;;;24.29;84.63;99640.38;4949741;29;20502;-71
2022/08/22 06:14:51;;;;;;;17.70;10.50;;;;;;;24.45;83.87;99639.84;4900155;28;20041;-72
2022/08/22 06:17:21;;;;;;;14.85;9.98;;;;;;;24.56;82.42;99637.69;4871467;28;20507;-73
2022/08/22 06:19:51;;;;;;;14.60;10.88;;;;;;;24.61;83.84;99633.16;4871692;28;20068;-77
2022/08/22 06:22:22;;;;;;;15.80;10.85;;;;;;;24.70;85.02;99643.41;4871670;28;20503;-73
2022/08/22 06:24:50;;;;;;;15.20;10.88;;;;;;;24.73;84.07;99644.22;4871492;28;20033;-76
2022/08/22 06:27:21;;;;;;;21.52;10.30;;;;;;;24.82;83.43;99633.34;4871332;28;20043;-74
2022/08/22 06:29:50;;;;;;;17.50;10.27;;;;;;;24.84;81.64;99640.28;4871573;28;20033;-75
2022/08/22 06:32:21;;;;;;;13.73;8.60;;;;;;;24.98;79.48;99631.88;4871581;28;20427;-76
2022/08/22 06:34:48;;;;;;;14.73;9.27;;;;;;;25.06;80.23;99630.72;4871382;28;20480;-74
2022/08/22 06:37:30;;;;;;;15.27;8.68;;;;;;;25.16;77.85;99637.38;4871326;28;20438;-75
2022/08/22 06:39:57;;;;;;;13.77;7.70;;;;;;;25.28;75.46;99641.38;4871304;28;20064;-70
2022/08/22 06:42:28;;;;;;;13.40;7.82;;;;;;;25.22;75.25;99620.47;4871470;28;20044;-77
2022/08/22 06:45:10;;;;;;;13.55;7.60;;;;;;;25.34;75.54;99646.44;4871332;28;20029;-76
2022/08/22 06:47:40;;;;;;;13.98;7.68;;;;;;;25.40;73.94;99646.22;5017934;28;20538;-73
2022/08/22 06:50:11;;;;;;;16.25;7.20;;;;;;;25.61;72.23;99648.97;5029487;28;20076;-70
2022/08/22 06:52:59;;;;;;;19.33;7.32;;;;;;;25.61;71.43;99643.66;5030020;28;20549;-74
2022/08/22 06:55:27;;;;;;;13.88;7.18;;;;;;;25.73;72.60;99650.28;5029949;28;20030;-74
2022/08/22 06:57:57;;;;;;;15.45;7.82;;;;;;;25.77;75.44;99644.81;5029744;28;20025;-76
2022/08/22 07:00:23;;;;;;;15.48;7.13;;;;;;;25.73;71.46;99626.50;5029736;28;20111;-73
2022/08/22 07:02:57;;;;;;;16.58;8.80;;;;;;;25.82;72.39;99652.53;5029725;28;20029;-74
2022/08/22 07:05:33;;;;;;;15.45;7.30;;;;;;;25.88;71.60;99651.47;5029712;28;20541;-75
2022/08/22 07:08:05;;;;;;;19.90;8.15;;;;;;;25.93;74.59;99650.38;5029609;28;20025;-71
2022/08/22 07:10:31;;;;;;;10.32;7.82;;;;;;;26.00;75.27;99649.16;5029764;28;20025;-74
2022/08/22 07:12:57;;;;;;;18.35;8.27;;;;;;;25.94;73.64;99651.22;5029681;28;20101;-73
2022/08/22 07:15:33;;;;;;;18.92;8.20;;;;;;;26.02;75.06;99653.53;5030149;28;20044;-76
2022/08/22 07:18:03;;;;;;;18.48;8.52;;;;;;;25.99;74.58;99650.13;5033269;28;20487;-74
2022/08/22 07:20:46;;;;;;;12.65;8.27;;;;;;;25.99;73.29;99657.19;5033260;28;20036;-71
2022/08/22 07:23:35;;;;;;;13.85;8.07;;;;;;;25.90;73.26;99658.41;5033282;28;20183;-72
2022/08/22 07:26:12;;;;;;;14.10;8.57;;;;;;;25.95;73.72;99658.22;4933027;28;20134;-74
2022/08/22 07:28:48;;;;;;;13.15;8.55;;;;;;;25.90;73.48;99661.06;4932751;28;20034;-74
2022/08/22 07:31:35;;;;;;;12.27;8.80;;;;;;;25.90;73.17;99663.69;4933018;29;20110;-75
2022/08/22 07:34:21;;;;;;;13.90;8.38;;;;;;;26.01;73.58;99663.28;4932308;29;20456;-71
2022/08/22 07:37:02;;;;;;;10.90;9.07;;;;;;;26.12;73.93;99661.09;4932590;29;20038;-74
2022/08/22 07:40:02;;;;;;;13.02;9.23;;;;;;;25.99;73.38;99665.09;4932278;29;20090;-73
2022/08/22 07:42:44;;;;;;;15.65;9.57;;;;;;;26.05;73.96;99656.94;4931287;28;20400;-75
2022/08/22 07:45:14;;;;;;;16.05;9.88;;;;;;;25.96;73.41;99638.81;4932815;29;20028;-75
2022/08/22 07:48:18;;;;;;;17.10;9.85;;;;;;;26.02;72.70;99646.50;4932476;29;20035;-72
2022/08/22 07:50:59;;;;;;;14.73;9.95;;;;;;;26.27;72.02;99666.66;4949382;29;20059;-71
2022/08/22 07:53:51;;;;;;;17.67;10.38;;;;;;;26.35;72.55;99666.38;4951479;29;20429;-73
2022/08/22 07:56:29;;;;;;;18.58;10.77;;;;;;;26.45;71.04;99663.25;4952117;29;20085;-76
2022/08/22 07:59:02;;;;;;;11.70;10.10;;;;;;;26.67;70.20;99665.00;4952060;28;20066;-76
2022/08/22 08:01:50;;;;;;;12.68;9.60;;;;;;;26.66;70.97;99665.94;4962083;28;20050;-74
2022/08/22 08:04:23;;;;;;;12.13;10.00;;;;;;;26.75;69.99;99662.06;4951613;28;20152;-72
2022/08/22 08:06:56;;;;;;;16.73;10.25;;;;;;;26.93;68.95;99661.25;4951706;28;20086;-70
2022/08/22 08:09:25;;;;;;;14.98;10.05;;;;;;;27.03;68.36;99629.06;4951317;28;20043;-74
2022/08/22 08:11:52;;;;;;;10.70;9.63;;;;;;;27.27;67.13;99650.94;4933632;28;20038;-73
2022/08/22 08:14:20;;;;;;;13.43;9.13;;;;;;;27.35;68.89;99656.75;4951282;28;20031;-73
2022/08/22 08:17:12;;;;;;;13.48;8.43;;;;;;;27.35;66.85;99661.19;4951448;28;20122;-73
2022/08/22 08:19:40;;;;;;;15.60;9.93;;;;;;;27.32;68.13;99651.59;4902224;29;20036;-75
2022/08/22 08:22:06;;;;;;;11.05;8.15;;;;;;;27.54;65.99;99659.44;4902630;29;20534;-74
2022/08/22 08:24:36;;;;;;;11.45;8.00;;;;;;;27.55;64.17;99639.97;4903344;29;20441;-75
2022/08/22 08:29:57;;;;;;;19.83;8.98;;;;;;;28.07;65.24;99647.22;4893988;29;20084;-74
2022/08/22 08:32:27;;;;;;;9.40;7.45;;;;;;;28.10;62.89;99635.59;4905808;28;20043;-72
2022/08/22 08:34:53;;;;;;;12.35;8.05;;;;;;;28.30;62.19;99650.56;4950977;29;20039;-71
2022/08/22 08:37:34;;;;;;;13.40;6.95;;;;;;;28.51;59.55;99640.66;4951025;29;20045;-73
2022/08/22 08:40:07;;;;;;;7.07;6.35;;;;;;;28.73;56.08;99639.56;4950939;29;20034;-72
2022/08/22 08:43:25;;;;;;;7.68;6.10;;;;;;;28.76;55.32;99644.69;4887863;29;20032;-72
2022/08/22 08:46:07;;;;;;;11.27;6.28;;;;;;;28.72;55.48;99646.69;4881561;28;20080;-72
2022/08/22 08:48:55;;;;;;;9.30;6.60;;;;;;;28.90;55.93;99628.06;4889740;29;20124;-74
2022/08/22 08:51:59;;;;;;;11.25;6.70;;;;;;;29.01;55.01;99627.47;4856377;29;20057;-75
2022/08/22 08:54:56;;;;;;;11.48;6.55;;;;;;;29.23;56.47;99621.03;4846709;29;20093;-77
2022/08/22 08:57:32;;;;;;;12.85;7.72;;;;;;;29.18;55.45;99600.00;4861637;29;20510;-78
2022/08/22 09:00:04;;;;;;;10.38;6.07;;;;;;;29.01;53.07;99601.78;4873724;29;20547;-77
2022/08/22 09:02:52;;;;;;;10.15;6.13;;;;;;;29.34;53.51;99629.28;4875320;29;20053;-76
2022/08/22 09:05:47;;;;;;;9.40;6.20;;;;;;;29.61;54.63;99631.34;4851007;29;20084;-76
2022/08/22 09:08:37;;;;;;;7.05;6.35;;;;;;;29.76;51.90;99625.19;4828029;29;20054;-77
2022/08/22 09:11:29;;;;;;;8.40;7.47;;;;;;;29.52;55.61;99625.63;4798809;29;20413;-76
2022/08/22 09:14:01;;;;;;;7.22;5.88;;;;;;;29.50;52.71;99616.03;4827697;29;20529;-74
2022/08/22 09:17:00;;;;;;;10.02;6.35;;;;;;;29.50;52.83;99619.53;4828505;29;20050;-76
2022/08/22 09:19:47;;;;;;;9.82;6.60;;;;;;;29.57;52.19;99619.19;4829752;29;20042;-76
2022/08/22 09:22:21;;;;;;;9.35;7.20;;;;;;;29.61;52.45;99623.38;4827378;29;20046;-77
2022/08/22 09:25:14;;;;;;;10.32;6.75;;;;;;;29.64;52.87;99623.22;4847464;29;20040;-78
2022/08/22 09:27:58;;;;;;;10.52;7.22;;;;;;;29.73;51.81;99614.72;4905486;28;20039;-76
2022/08/22 09:30:30;;;;;;;10.00;6.78;;;;;;;30.00;51.82;99611.47;4967827;28;20043;-74
2022/08/22 09:33:05;;;;;;;8.45;6.75;;;;;;;30.14;50.36;99613.31;4969165;28;20408;-73
2022/08/22 09:35:36;;;;;;;10.55;6.72;;;;;;;30.28;52.93;99607.19;4969289;28;20525;-73
2022/08/22 09:38:07;;;;;;;10.43;7.25;;;;;;;30.32;53.00;99598.09;4962996;28;20042;-73
2022/08/22 09:40:38;;;;;;;10.27;6.88;;;;;;;30.37;50.34;99590.66;4969166;28;20031;-74
2022/08/22 09:43:09;;;;;;;12.98;7.32;;;;;;;30.40;51.23;99603.78;4969311;28;20027;-76
2022/08/22 09:46:03;;;;;;;8.98;6.60;;;;;;;30.36;49.31;99583.63;4963162;28;20148;-76
2022/08/22 09:48:39;;;;;;;8.18;6.55;;;;;;;30.49;50.79;99603.28;4960541;28;20038;-76
2022/08/22 09:51:18;;;;;;;8.88;6.57;;;;;;;30.72;48.08;99592.16;4960237;28;20121;-75
2022/08/22 09:54:02;;;;;;;7.97;6.38;;;;;;;31.12;48.60;99579.06;4959608;28;20119;-74
2022/08/22 09:56:54;;;;;;;9.90;6.05;;;;;;;31.31;45.92;99573.41;4957206;28;20427;-76
2022/08/22 09:59:42;;;;;;;8.30;6.35;;;;;;;31.42;45.41;99586.91;4952531;28;20038;-75
2022/08/22 10:02:26;;;;;;;10.77;6.25;;;;;;;31.60;43.57;99579.53;4960027;28;20557;-75
2022/08/22 10:05:17;;;;;;;9.02;6.65;;;;;;;31.72;45.67;99577.91;4960148;28;20033;-73
2022/08/22 10:08:09;;;;;;;8.63;6.40;;;;;;;31.77;45.10;99559.78;4959988;28;20053;-70
2022/08/22 10:11:02;;;;;;;9.27;7.10;;;;;;;31.96;48.03;99573.72;4960358;28;20058;-73
2022/08/22 10:13:58;;;;;;;7.22;6.47;;;;;;;32.08;44.17;99572.91;4959225;28;20404;-73
2022/08/22 10:16:38;;;;;;;10.43;6.47;;;;;;;32.00;44.15;99570.75;4971202;28;20097;-74
2022/08/22 10:19:15;;;;;;;8.07;6.18;;;;;;;31.89;43.47;99541.22;4959838;28;20137;-72
2022/08/22 10:22:09;;;;;;;7.80;6.30;;;;;;;32.08;46.50;99555.06;4960056;28;20037;-70
2022/08/22 10:25:03;;;;;;;6.18;4.90;;;;;;;31.80;42.21;99557.88;4959882;28;20041;-70
2022/08/22 10:27:39;;;;;;;6.68;5.90;;;;;;;31.57;43.10;99562.88;4959601;28;20126;-73
2022/08/22 10:30:06;;;;;;;6.53;5.32;;;;;;;31.34;43.36;99535.91;4959738;28;20031;-78
2022/08/22 10:32:43;;;;;;;7.38;5.53;;;;;;;31.45;43.48;99559.19;4951586;28;20125;-79
2022/08/22 10:35:26;;;;;;;7.28;5.07;;;;;;;31.82;44.06;99562.16;4959270;28;20066;-77
2022/08/22 10:38:02;;;;;;;8.00;4.97;;;;;;;32.05;41.96;99563.28;4958009;28;20027;-76
2022/08/22 10:40:50;;;;;;;6.07;5.07;;;;;;;31.84;42.58;99557.56;4959404;28;20026;-72
2022/08/22 10:43:38;;;;;;;7.88;5.43;;;;;;;32.11;42.68;99543.31;4960155;28;20114;-72
2022/08/22 10:46:27;;;;;;;21.35;5.57;;;;;;;32.33;44.35;99550.75;4961232;28;20031;-75
2022/08/22 10:49:02;;;;;;;5.20;4.47;;;;;;;32.57;44.15;99531.28;5007654;28;20099;-75
2022/08/22 10:51:35;;;;;;;6.03;4.93;;;;;;;32.80;45.57;99532.38;4993210;28;20049;-79
2022/08/22 10:54:21;;;;;;;8.80;4.95;;;;;;;32.62;42.25;99513.13;4994813;28;20046;-80
2022/08/22 10:57:14;;;;;;;7.03;4.10;;;;;;;32.71;39.96;99533.88;4991084;28;20105;-80
2022/08/22 11:00:13;;;;;;;8.00;4.40;;;;;;;32.78;40.73;99526.28;4990685;28;20077;-77
2022/08/22 11:02:53;;;;;;;8.98;4.70;;;;;;;33.04;41.93;99519.06;4990892;28;20451;-76
2022/08/22 11:05:55;;;;;;;6.47;4.25;;;;;;;33.24;42.16;99524.78;4990812;28;20405;-76
2022/08/22 11:08:27;;;;;;;5.72;4.13;;;;;;;33.31;40.60;99519.88;4951796;29;20047;-74
2022/08/22 11:11:19;;;;;;;5.68;3.88;;;;;;;33.38;38.16;99511.28;4951734;29;20122;-73
2022/08/22 11:14:10;;;;;;;6.15;4.28;;;;;;;33.51;36.52;99496.97;4935875;29;20095;-74
2022/08/22 11:16:57;;;;;;;5.75;4.10;;;;;;;33.57;36.66;99482.31;4952151;29;20043;-75
2022/08/22 11:19:41;;;;;;;8.25;4.28;;;;;;;33.78;37.84;99490.53;4952347;29;20046;-77
2022/08/22 11:22:09;;;;;;;7.70;4.22;;;;;;;33.91;36.56;99483.31;4952315;29;20043;-76
2022/08/22 11:25:12;;;;;;;6.57;3.70;;;;;;;33.98;36.38;99489.91;4952276;29;20078;-78
2022/08/22 11:28:00;;;;;;;5.40;3.95;;;;;;;34.26;36.16;99485.06;4990793;28;20037;-76
2022/08/22 11:31:03;;;;;;;7.25;3.63;;;;;;;34.21;36.44;99476.56;4971403;28;20050;-75
2022/08/22 11:33:55;;;;;;;7.65;4.28;;;;;;;34.34;34.89;99482.69;4970879;28;20030;-78
2022/08/22 11:36:38;;;;;;;6.90;4.07;;;;;;;34.47;34.76;99466.50;4964498;28;20125;-76
2022/08/22 11:39:26;;;;;;;6.00;3.90;;;;;;;34.57;35.35;99444.28;4951867;29;20537;-75
2022/08/22 11:42:02;;;;;;;5.78;3.90;;;;;;;34.75;34.68;99463.44;4951602;29;20415;-74
2022/08/22 11:44:35;;;;;;;4.65;3.78;;;;;;;34.71;33.69;99472.66;4973608;28;20088;-73
2022/08/22 11:47:07;;;;;;;11.75;4.25;;;;;;;34.38;33.77;99472.56;5010163;28;20084;-74
2022/08/22 11:49:40;;;;;;;6.35;3.92;;;;;;;34.37;33.68;99470.00;5013475;28;20045;-73
2022/08/22 11:52:05;;;;;;;6.40;3.47;;;;;;;34.32;33.70;99465.84;5010391;28;20050;-73
2022/08/22 11:54:52;;;;;;;4.25;3.45;;;;;;;33.74;34.55;99467.66;5009742;28;20100;-74
2022/08/22 11:57:29;;;;;;;7.35;3.90;;;;;;;33.95;35.19;99466.03;5010008;28;20034;-77
2022/08/22 12:00:19;;;;;;;5.32;3.92;;;;;;;34.28;32.70;99455.47;5008753;28;20052;-71
2022/08/22 12:03:22;;;;;;;5.07;3.97;;;;;;;34.29;31.79;99450.00;5008605;28;20025;-73
2022/08/22 12:05:50;;;;;;;5.18;4.00;;;;;;;34.02;32.24;99445.84;5008253;28;20117;-71
2022/08/22 12:08:39;;;;;;;5.23;3.97;;;;;;;34.24;33.54;99440.63;5009162;28;20081;-73
2022/08/22 12:11:07;;;;;;;;;;;;;;;34.32;32.48;99436.38;5008454;28;20455;-74
2022/08/22 12:13:54;;;;;;;9.83;4.20;;;;;;;34.37;32.45;99443.22;4976712;28;19922;-70
2022/08/22 12:16:37;;;;;;;8.55;3.72;;;;;;;34.76;31.77;99439.16;4950536;28;20031;-74
2022/08/22 12:19:45;;;;;;;5.10;4.13;;;;;;;35.06;31.49;99437.66;4949970;28;20031;-73
2022/08/22 12:22:29;;;;;;;7.07;4.38;;;;;;;35.34;32.87;99434.53;4992062;28;20030;-74
2022/08/22 12:25:10;;;;;;;5.88;4.22;;;;;;;35.39;33.51;99438.56;5009689;28;20515;-74
2022/08/22 12:28:00;;;;;;;6.50;3.85;;;;;;;35.46;32.42;99434.38;5009195;28;20042;-73
2022/08/22 12:30:37;;;;;;;9.43;4.45;;;;;;;35.22;33.29;99409.56;4990851;28;20061;-72
2022/08/22 12:33:11;;;;;;;5.85;4.15;;;;;;;35.14;33.16;99443.25;5006770;28;20045;-70
2022/08/22 12:36:09;;;;;;;5.20;3.90;;;;;;;35.09;32.32;99433.88;5009323;28;20038;-75